sensor_id;sensor_type;location;lat;lon;timestamp;P1;durP1;ratioP1;P2;durP2;ratioP2
18997;SDS011;9632;51.018;4.284;2023-09-12T00:00:49;23.45;;;13.07;;
18997;SDS011;9632;51.018;4.284;2023-09-12T00:03:17;19.40;;;12.18;;
18997;SDS011;9632;51.018;4.284;2023-09-12T00:05:50;16.48;;;10.88;;
18997;SDS011;9632;51.018;4.284;2023-09-12T00:08:20;18.08;;;10.80;;
18997;SDS011;9632;51.018;4.284;2023-09-12T00:10:46;18.05;;;11.23;;
18997;SDS011;9632;51.018;4.284;2023-09-12T00:13:11;17.58;;;10.30;;
18997;SDS011;9632;51.018;4.284;2023-09-12T00:15:37;17.13;;;10.05;;
18997;SDS011;9632;51.018;4.284;2023-09-12T00:18:03;16.17;;;10.63;;
18997;SDS011;9632;51.018;4.284;2023-09-12T00:20:29;17.40;;;10.88;;
18997;SDS011;9632;51.018;4.284;2023-09-12T00:22:55;19.08;;;10.27;;
18997;SDS011;9632;51.018;4.284;2023-09-12T00:25:21;17.65;;;11.13;;
18997;SDS011;9632;51.018;4.284;2023-09-12T00:27:47;18.70;;;10.70;;
18997;SDS011;9632;51.018;4.284;2023-09-12T00:30:15;17.13;;;11.32;;
18997;SDS011;9632;51.018;4.284;2023-09-12T00:32:41;21.20;;;13.20;;
18997;SDS011;9632;51.018;4.284;2023-09-12T00:35:07;17.15;;;10.98;;
18997;SDS011;9632;51.018;4.284;2023-09-12T00:37:32;16.42;;;10.15;;
18997;SDS011;9632;51.018;4.284;2023-09-12T00:39:58;18.95;;;11.07;;
18997;SDS011;9632;51.018;4.284;2023-09-12T00:42:27;16.45;;;11.43;;
18997;SDS011;9632;51.018;4.284;2023-09-12T00:44:52;18.65;;;11.13;;
18997;SDS011;9632;51.018;4.284;2023-09-12T00:47:18;17.90;;;11.23;;
18997;SDS011;9632;51.018;4.284;2023-09-12T00:49:47;18.52;;;10.43;;
18997;SDS011;9632;51.018;4.284;2023-09-12T00:52:14;19.73;;;11.35;;
18997;SDS011;9632;51.018;4.284;2023-09-12T00:54:40;18.20;;;11.48;;
18997;SDS011;9632;51.018;4.284;2023-09-12T00:57:06;19.20;;;10.90;;
18997;SDS011;9632;51.018;4.284;2023-09-12T00:59:32;16.63;;;10.90;;
18997;SDS011;9632;51.018;4.284;2023-09-12T01:01:58;14.98;;;9.32;;
18997;SDS011;9632;51.018;4.284;2023-09-12T01:04:25;16.50;;;10.55;;
18997;SDS011;9632;51.018;4.284;2023-09-12T01:06:51;19.27;;;11.20;;
18997;SDS011;9632;51.018;4.284;2023-09-12T01:09:17;18.50;;;10.73;;
18997;SDS011;9632;51.018;4.284;2023-09-12T01:11:43;20.65;;;11.77;;
18997;SDS011;9632;51.018;4.284;2023-09-12T01:14:09;18.65;;;12.10;;
18997;SDS011;9632;51.018;4.284;2023-09-12T01:16:35;18.65;;;11.95;;
18997;SDS011;9632;51.018;4.284;2023-09-12T01:19:01;20.52;;;12.48;;
18997;SDS011;9632;51.018;4.284;2023-09-12T01:26:45;23.35;;;13.23;;
18997;SDS011;9632;51.018;4.284;2023-09-12T01:29:22;20.30;;;12.45;;
18997;SDS011;9632;51.018;4.284;2023-09-12T01:31:50;24.25;;;13.95;;
18997;SDS011;9632;51.018;4.284;2023-09-12T01:34:17;26.90;;;15.40;;
18997;SDS011;9632;51.018;4.284;2023-09-12T01:36:44;29.52;;;16.88;;
18997;SDS011;9632;51.018;4.284;2023-09-12T01:39:09;28.27;;;16.10;;
18997;SDS011;9632;51.018;4.284;2023-09-12T01:41:37;27.80;;;15.93;;
18997;SDS011;9632;51.018;4.284;2023-09-12T01:44:05;24.02;;;14.50;;
18997;SDS011;9632;51.018;4.284;2023-09-12T01:46:33;26.38;;;14.45;;
18997;SDS011;9632;51.018;4.284;2023-09-12T01:49:00;32.40;;;19.40;;
18997;SDS011;9632;51.018;4.284;2023-09-12T01:51:29;31.25;;;17.52;;
18997;SDS011;9632;51.018;4.284;2023-09-12T01:53:55;25.90;;;16.08;;
18997;SDS011;9632;51.018;4.284;2023-09-12T01:56:23;28.95;;;15.68;;
18997;SDS011;9632;51.018;4.284;2023-09-12T01:58:50;29.17;;;16.50;;
18997;SDS011;9632;51.018;4.284;2023-09-12T02:01:15;24.38;;;14.77;;
18997;SDS011;9632;51.018;4.284;2023-09-12T02:03:41;21.38;;;13.05;;
18997;SDS011;9632;51.018;4.284;2023-09-12T02:06:07;24.60;;;15.10;;
18997;SDS011;9632;51.018;4.284;2023-09-12T02:08:32;30.10;;;16.15;;
18997;SDS011;9632;51.018;4.284;2023-09-12T02:10:58;25.20;;;15.00;;
18997;SDS011;9632;51.018;4.284;2023-09-12T02:13:23;24.50;;;14.70;;
18997;SDS011;9632;51.018;4.284;2023-09-12T02:15:49;24.08;;;14.00;;
18997;SDS011;9632;51.018;4.284;2023-09-12T02:18:15;26.80;;;14.73;;
18997;SDS011;9632;51.018;4.284;2023-09-12T02:20:40;26.83;;;13.73;;
18997;SDS011;9632;51.018;4.284;2023-09-12T02:23:06;23.55;;;14.68;;
18997;SDS011;9632;51.018;4.284;2023-09-12T02:25:32;25.38;;;14.25;;
18997;SDS011;9632;51.018;4.284;2023-09-12T02:27:58;27.60;;;16.08;;
18997;SDS011;9632;51.018;4.284;2023-09-12T02:30:23;21.35;;;13.18;;
18997;SDS011;9632;51.018;4.284;2023-09-12T02:32:49;24.38;;;14.13;;
18997;SDS011;9632;51.018;4.284;2023-09-12T02:35:15;24.05;;;14.60;;
18997;SDS011;9632;51.018;4.284;2023-09-12T02:37:40;24.52;;;14.57;;
18997;SDS011;9632;51.018;4.284;2023-09-12T02:40:06;25.63;;;14.80;;
18997;SDS011;9632;51.018;4.284;2023-09-12T02:42:33;21.90;;;14.07;;
18997;SDS011;9632;51.018;4.284;2023-09-12T02:44:59;23.13;;;14.18;;
18997;SDS011;9632;51.018;4.284;2023-09-12T02:47:24;23.35;;;13.68;;
18997;SDS011;9632;51.018;4.284;2023-09-12T02:49:50;23.60;;;14.57;;
18997;SDS011;9632;51.018;4.284;2023-09-12T02:52:16;23.88;;;14.52;;
18997;SDS011;9632;51.018;4.284;2023-09-12T02:54:42;24.38;;;13.90;;
18997;SDS011;9632;51.018;4.284;2023-09-12T02:57:07;19.25;;;12.70;;
18997;SDS011;9632;51.018;4.284;2023-09-12T02:59:33;23.55;;;12.65;;
18997;SDS011;9632;51.018;4.284;2023-09-12T03:01:58;26.55;;;13.32;;
18997;SDS011;9632;51.018;4.284;2023-09-12T03:04:27;24.23;;;14.57;;
18997;SDS011;9632;51.018;4.284;2023-09-12T03:06:53;19.75;;;11.90;;
18997;SDS011;9632;51.018;4.284;2023-09-12T03:09:19;21.77;;;13.23;;
18997;SDS011;9632;51.018;4.284;2023-09-12T03:11:44;20.10;;;12.63;;
18997;SDS011;9632;51.018;4.284;2023-09-12T03:14:10;21.55;;;13.50;;
18997;SDS011;9632;51.018;4.284;2023-09-12T03:16:35;20.65;;;12.43;;
18997;SDS011;9632;51.018;4.284;2023-09-12T03:19:02;22.70;;;14.05;;
18997;SDS011;9632;51.018;4.284;2023-09-12T03:21:28;24.40;;;14.63;;
18997;SDS011;9632;51.018;4.284;2023-09-12T03:23:54;25.20;;;15.38;;
18997;SDS011;9632;51.018;4.284;2023-09-12T03:26:19;26.50;;;15.25;;
18997;SDS011;9632;51.018;4.284;2023-09-12T03:28:46;30.10;;;16.77;;
18997;SDS011;9632;51.018;4.284;2023-09-12T03:31:14;29.25;;;16.98;;
18997;SDS011;9632;51.018;4.284;2023-09-12T03:33:40;31.23;;;17.98;;
18997;SDS011;9632;51.018;4.284;2023-09-12T03:36:07;25.00;;;15.07;;
18997;SDS011;9632;51.018;4.284;2023-09-12T03:38:33;24.25;;;15.25;;
18997;SDS011;9632;51.018;4.284;2023-09-12T03:41:00;31.52;;;18.45;;
18997;SDS011;9632;51.018;4.284;2023-09-12T03:43:26;30.60;;;17.88;;
18997;SDS011;9632;51.018;4.284;2023-09-12T03:45:51;29.50;;;17.83;;
18997;SDS011;9632;51.018;4.284;2023-09-12T03:48:17;31.02;;;17.17;;
18997;SDS011;9632;51.018;4.284;2023-09-12T03:50:43;28.83;;;17.27;;
18997;SDS011;9632;51.018;4.284;2023-09-12T03:53:10;29.55;;;16.85;;
18997;SDS011;9632;51.018;4.284;2023-09-12T03:55:36;24.58;;;15.13;;
18997;SDS011;9632;51.018;4.284;2023-09-12T03:58:02;30.90;;;18.05;;
18997;SDS011;9632;51.018;4.284;2023-09-12T04:00:28;25.58;;;15.27;;
18997;SDS011;9632;51.018;4.284;2023-09-12T04:02:54;29.50;;;17.88;;
18997;SDS011;9632;51.018;4.284;2023-09-12T04:05:19;27.05;;;16.10;;
18997;SDS011;9632;51.018;4.284;2023-09-12T04:07:45;29.67;;;16.40;;
18997;SDS011;9632;51.018;4.284;2023-09-12T04:10:10;26.25;;;16.02;;
18997;SDS011;9632;51.018;4.284;2023-09-12T04:12:37;29.13;;;17.27;;
18997;SDS011;9632;51.018;4.284;2023-09-12T04:15:02;25.00;;;15.30;;
18997;SDS011;9632;51.018;4.284;2023-09-12T04:17:28;27.30;;;16.55;;
18997;SDS011;9632;51.018;4.284;2023-09-12T04:19:54;25.98;;;16.38;;
18997;SDS011;9632;51.018;4.284;2023-09-12T04:22:19;23.90;;;15.13;;
18997;SDS011;9632;51.018;4.284;2023-09-12T04:24:45;25.98;;;15.25;;
18997;SDS011;9632;51.018;4.284;2023-09-12T04:27:10;22.90;;;14.48;;
18997;SDS011;9632;51.018;4.284;2023-09-12T04:29:36;25.55;;;15.45;;
18997;SDS011;9632;51.018;4.284;2023-09-12T04:32:05;30.23;;;17.30;;
18997;SDS011;9632;51.018;4.284;2023-09-12T04:34:31;39.33;;;21.13;;
18997;SDS011;9632;51.018;4.284;2023-09-12T04:36:57;30.88;;;17.35;;
18997;SDS011;9632;51.018;4.284;2023-09-12T04:39:22;30.85;;;16.20;;
18997;SDS011;9632;51.018;4.284;2023-09-12T04:41:48;24.88;;;14.80;;
18997;SDS011;9632;51.018;4.284;2023-09-12T04:44:14;32.65;;;17.40;;
18997;SDS011;9632;51.018;4.284;2023-09-12T04:46:40;28.10;;;15.27;;
18997;SDS011;9632;51.018;4.284;2023-09-12T04:49:05;27.73;;;16.50;;
18997;SDS011;9632;51.018;4.284;2023-09-12T04:51:31;25.13;;;15.30;;
18997;SDS011;9632;51.018;4.284;2023-09-12T04:53:56;25.77;;;15.27;;
18997;SDS011;9632;51.018;4.284;2023-09-12T04:56:22;25.75;;;14.85;;
18997;SDS011;9632;51.018;4.284;2023-09-12T04:58:50;33.42;;;18.08;;
18997;SDS011;9632;51.018;4.284;2023-09-12T05:01:16;29.90;;;17.65;;
18997;SDS011;9632;51.018;4.284;2023-09-12T05:03:42;24.75;;;14.02;;
18997;SDS011;9632;51.018;4.284;2023-09-12T05:06:09;28.35;;;14.98;;
18997;SDS011;9632;51.018;4.284;2023-09-12T05:08:35;30.75;;;16.73;;
18997;SDS011;9632;51.018;4.284;2023-09-12T05:11:01;23.75;;;14.40;;
18997;SDS011;9632;51.018;4.284;2023-09-12T05:13:28;25.92;;;15.00;;
18997;SDS011;9632;51.018;4.284;2023-09-12T05:15:54;28.48;;;16.05;;
18997;SDS011;9632;51.018;4.284;2023-09-12T05:18:20;24.50;;;14.52;;
18997;SDS011;9632;51.018;4.284;2023-09-12T05:20:46;21.23;;;14.30;;
18997;SDS011;9632;51.018;4.284;2023-09-12T05:23:12;23.55;;;13.85;;
18997;SDS011;9632;51.018;4.284;2023-09-12T05:25:37;22.63;;;14.38;;
18997;SDS011;9632;51.018;4.284;2023-09-12T05:28:03;26.90;;;15.55;;
18997;SDS011;9632;51.018;4.284;2023-09-12T05:30:29;23.83;;;14.70;;
18997;SDS011;9632;51.018;4.284;2023-09-12T05:32:55;22.23;;;13.45;;
18997;SDS011;9632;51.018;4.284;2023-09-12T05:35:21;25.77;;;15.05;;
18997;SDS011;9632;51.018;4.284;2023-09-12T05:37:46;24.20;;;15.00;;
18997;SDS011;9632;51.018;4.284;2023-09-12T05:40:12;22.98;;;13.45;;
18997;SDS011;9632;51.018;4.284;2023-09-12T05:42:38;20.38;;;12.38;;
18997;SDS011;9632;51.018;4.284;2023-09-12T05:45:04;21.02;;;13.40;;
18997;SDS011;9632;51.018;4.284;2023-09-12T05:47:31;21.77;;;12.70;;
18997;SDS011;9632;51.018;4.284;2023-09-12T05:49:56;24.67;;;13.50;;
18997;SDS011;9632;51.018;4.284;2023-09-12T05:52:24;19.75;;;12.23;;
18997;SDS011;9632;51.018;4.284;2023-09-12T05:54:50;23.08;;;13.10;;
18997;SDS011;9632;51.018;4.284;2023-09-12T05:57:16;21.92;;;13.13;;
18997;SDS011;9632;51.018;4.284;2023-09-12T05:59:41;22.63;;;13.80;;
18997;SDS011;9632;51.018;4.284;2023-09-12T06:02:07;24.90;;;14.48;;
18997;SDS011;9632;51.018;4.284;2023-09-12T06:04:36;24.20;;;13.55;;
18997;SDS011;9632;51.018;4.284;2023-09-12T06:07:02;21.50;;;13.27;;
18997;SDS011;9632;51.018;4.284;2023-09-12T06:09:28;20.65;;;12.98;;
18997;SDS011;9632;51.018;4.284;2023-09-12T06:11:54;24.15;;;14.63;;
18997;SDS011;9632;51.018;4.284;2023-09-12T06:14:20;22.50;;;13.05;;
18997;SDS011;9632;51.018;4.284;2023-09-12T06:16:46;22.42;;;12.88;;
18997;SDS011;9632;51.018;4.284;2023-09-12T06:19:11;22.38;;;13.70;;
18997;SDS011;9632;51.018;4.284;2023-09-12T06:21:38;25.48;;;14.48;;
18997;SDS011;9632;51.018;4.284;2023-09-12T06:26:36;22.83;;;14.40;;
18997;SDS011;9632;51.018;4.284;2023-09-12T06:29:03;22.35;;;12.93;;
18997;SDS011;9632;51.018;4.284;2023-09-12T06:31:28;23.80;;;13.43;;
18997;SDS011;9632;51.018;4.284;2023-09-12T06:33:54;24.90;;;15.38;;
18997;SDS011;9632;51.018;4.284;2023-09-12T06:36:20;23.45;;;14.25;;
18997;SDS011;9632;51.018;4.284;2023-09-12T06:38:46;24.88;;;13.80;;
18997;SDS011;9632;51.018;4.284;2023-09-12T06:41:12;26.92;;;14.93;;
18997;SDS011;9632;51.018;4.284;2023-09-12T06:43:38;26.48;;;15.70;;
18997;SDS011;9632;51.018;4.284;2023-09-12T06:46:03;31.65;;;17.23;;
18997;SDS011;9632;51.018;4.284;2023-09-12T06:48:29;29.40;;;17.50;;
18997;SDS011;9632;51.018;4.284;2023-09-12T06:50:55;26.52;;;15.60;;
18997;SDS011;9632;51.018;4.284;2023-09-12T06:53:20;31.13;;;16.73;;
18997;SDS011;9632;51.018;4.284;2023-09-12T06:55:46;29.60;;;15.95;;
18997;SDS011;9632;51.018;4.284;2023-09-12T06:58:12;32.70;;;18.95;;
18997;SDS011;9632;51.018;4.284;2023-09-12T07:00:37;32.30;;;18.05;;
18997;SDS011;9632;51.018;4.284;2023-09-12T07:03:03;38.10;;;20.45;;
18997;SDS011;9632;51.018;4.284;2023-09-12T07:05:29;37.67;;;19.52;;
18997;SDS011;9632;51.018;4.284;2023-09-12T07:07:54;37.25;;;18.33;;
18997;SDS011;9632;51.018;4.284;2023-09-12T07:10:20;35.42;;;18.40;;
18997;SDS011;9632;51.018;4.284;2023-09-12T07:12:46;37.53;;;19.65;;
18997;SDS011;9632;51.018;4.284;2023-09-12T07:15:11;37.15;;;19.98;;
18997;SDS011;9632;51.018;4.284;2023-09-12T07:17:38;39.47;;;20.73;;
18997;SDS011;9632;51.018;4.284;2023-09-12T07:20:04;35.20;;;18.83;;
18997;SDS011;9632;51.018;4.284;2023-09-12T07:22:36;42.28;;;21.58;;
18997;SDS011;9632;51.018;4.284;2023-09-12T07:25:03;41.85;;;21.92;;
18997;SDS011;9632;51.018;4.284;2023-09-12T07:27:29;47.38;;;25.13;;
18997;SDS011;9632;51.018;4.284;2023-09-12T07:29:55;57.38;;;28.77;;
18997;SDS011;9632;51.018;4.284;2023-09-12T07:32:20;54.92;;;26.95;;
18997;SDS011;9632;51.018;4.284;2023-09-12T07:34:46;52.95;;;27.77;;
18997;SDS011;9632;51.018;4.284;2023-09-12T07:37:13;52.03;;;27.83;;
18997;SDS011;9632;51.018;4.284;2023-09-12T07:39:39;67.60;;;33.42;;
18997;SDS011;9632;51.018;4.284;2023-09-12T07:42:05;72.22;;;33.72;;
18997;SDS011;9632;51.018;4.284;2023-09-12T07:44:30;57.70;;;29.70;;
18997;SDS011;9632;51.018;4.284;2023-09-12T07:46:56;51.92;;;27.90;;
18997;SDS011;9632;51.018;4.284;2023-09-12T07:49:22;64.63;;;32.20;;
18997;SDS011;9632;51.018;4.284;2023-09-12T07:51:49;66.50;;;32.80;;
18997;SDS011;9632;51.018;4.284;2023-09-12T07:54:15;64.93;;;31.17;;
18997;SDS011;9632;51.018;4.284;2023-09-12T07:56:42;68.93;;;34.78;;
18997;SDS011;9632;51.018;4.284;2023-09-12T07:59:08;57.47;;;30.00;;
18997;SDS011;9632;51.018;4.284;2023-09-12T08:01:35;52.55;;;27.70;;
18997;SDS011;9632;51.018;4.284;2023-09-12T08:04:00;55.83;;;26.50;;
18997;SDS011;9632;51.018;4.284;2023-09-12T08:06:26;60.88;;;29.48;;
18997;SDS011;9632;51.018;4.284;2023-09-12T08:08:52;55.30;;;27.67;;
18997;SDS011;9632;51.018;4.284;2023-09-12T08:11:17;54.42;;;27.25;;
18997;SDS011;9632;51.018;4.284;2023-09-12T08:13:45;65.15;;;31.38;;
18997;SDS011;9632;51.018;4.284;2023-09-12T08:16:13;59.38;;;30.77;;
18997;SDS011;9632;51.018;4.284;2023-09-12T08:18:39;69.20;;;33.65;;
18997;SDS011;9632;51.018;4.284;2023-09-12T08:21:04;76.35;;;36.40;;
18997;SDS011;9632;51.018;4.284;2023-09-12T08:23:30;72.45;;;34.92;;
18997;SDS011;9632;51.018;4.284;2023-09-12T08:25:55;70.05;;;33.70;;
18997;SDS011;9632;51.018;4.284;2023-09-12T08:28:21;64.10;;;32.85;;
18997;SDS011;9632;51.018;4.284;2023-09-12T08:30:47;62.33;;;31.27;;
18997;SDS011;9632;51.018;4.284;2023-09-12T08:33:12;57.75;;;29.67;;
18997;SDS011;9632;51.018;4.284;2023-09-12T08:35:38;70.10;;;32.22;;
18997;SDS011;9632;51.018;4.284;2023-09-12T08:38:04;67.07;;;32.58;;
18997;SDS011;9632;51.018;4.284;2023-09-12T08:40:30;70.95;;;33.08;;
18997;SDS011;9632;51.018;4.284;2023-09-12T08:42:57;60.17;;;30.67;;
18997;SDS011;9632;51.018;4.284;2023-09-12T08:45:23;73.40;;;36.30;;
18997;SDS011;9632;51.018;4.284;2023-09-12T08:47:50;74.47;;;36.22;;
18997;SDS011;9632;51.018;4.284;2023-09-12T08:50:17;71.72;;;33.58;;
18997;SDS011;9632;51.018;4.284;2023-09-12T08:52:43;64.07;;;31.00;;
18997;SDS011;9632;51.018;4.284;2023-09-12T08:55:10;68.88;;;34.10;;
18997;SDS011;9632;51.018;4.284;2023-09-12T08:57:38;83.25;;;38.47;;
18997;SDS011;9632;51.018;4.284;2023-09-12T09:00:05;86.07;;;39.55;;
18997;SDS011;9632;51.018;4.284;2023-09-12T09:02:36;88.72;;;40.28;;
18997;SDS011;9632;51.018;4.284;2023-09-12T09:05:03;79.65;;;37.90;;
18997;SDS011;9632;51.018;4.284;2023-09-12T09:07:32;72.03;;;36.83;;
18997;SDS011;9632;51.018;4.284;2023-09-12T09:10:03;87.15;;;40.72;;
18997;SDS011;9632;51.018;4.284;2023-09-12T09:12:33;87.43;;;39.38;;
18997;SDS011;9632;51.018;4.284;2023-09-12T09:15:19;73.70;;;36.70;;
18997;SDS011;9632;51.018;4.284;2023-09-12T09:17:45;65.03;;;32.80;;
18997;SDS011;9632;51.018;4.284;2023-09-12T09:20:18;67.15;;;32.15;;
18997;SDS011;9632;51.018;4.284;2023-09-12T09:22:57;72.82;;;32.50;;
18997;SDS011;9632;51.018;4.284;2023-09-12T09:25:35;58.42;;;28.88;;
18997;SDS011;9632;51.018;4.284;2023-09-12T09:28:05;57.42;;;28.08;;
18997;SDS011;9632;51.018;4.284;2023-09-12T09:30:44;58.88;;;29.27;;
18997;SDS011;9632;51.018;4.284;2023-09-12T09:33:11;53.38;;;27.05;;
18997;SDS011;9632;51.018;4.284;2023-09-12T09:35:37;51.97;;;25.60;;
18997;SDS011;9632;51.018;4.284;2023-09-12T09:38:06;63.97;;;30.70;;
18997;SDS011;9632;51.018;4.284;2023-09-12T09:40:32;57.40;;;29.15;;
18997;SDS011;9632;51.018;4.284;2023-09-12T09:42:59;54.97;;;27.27;;
18997;SDS011;9632;51.018;4.284;2023-09-12T09:45:26;57.25;;;27.80;;
18997;SDS011;9632;51.018;4.284;2023-09-12T09:47:56;56.42;;;27.35;;
18997;SDS011;9632;51.018;4.284;2023-09-12T09:50:23;59.45;;;27.58;;
18997;SDS011;9632;51.018;4.284;2023-09-12T09:52:53;51.45;;;24.77;;
18997;SDS011;9632;51.018;4.284;2023-09-12T09:55:20;50.80;;;23.73;;
18997;SDS011;9632;51.018;4.284;2023-09-12T09:57:46;41.97;;;22.13;;
18997;SDS011;9632;51.018;4.284;2023-09-12T10:00:13;49.85;;;25.10;;
18997;SDS011;9632;51.018;4.284;2023-09-12T10:02:40;37.13;;;20.65;;
18997;SDS011;9632;51.018;4.284;2023-09-12T10:05:06;44.33;;;22.20;;
18997;SDS011;9632;51.018;4.284;2023-09-12T10:07:34;38.95;;;19.65;;
18997;SDS011;9632;51.018;4.284;2023-09-12T10:10:03;45.03;;;21.48;;
18997;SDS011;9632;51.018;4.284;2023-09-12T10:12:35;35.85;;;18.83;;
18997;SDS011;9632;51.018;4.284;2023-09-12T10:15:03;32.10;;;16.38;;
18997;SDS011;9632;51.018;4.284;2023-09-12T10:17:35;28.70;;;14.85;;
18997;SDS011;9632;51.018;4.284;2023-09-12T10:20:03;29.85;;;15.35;;
18997;SDS011;9632;51.018;4.284;2023-09-12T10:22:37;25.55;;;13.55;;
18997;SDS011;9632;51.018;4.284;2023-09-12T10:25:08;24.48;;;13.63;;
18997;SDS011;9632;51.018;4.284;2023-09-12T10:27:36;22.23;;;12.77;;
18997;SDS011;9632;51.018;4.284;2023-09-12T10:30:02;23.73;;;12.27;;
18997;SDS011;9632;51.018;4.284;2023-09-12T10:32:29;23.50;;;12.57;;
18997;SDS011;9632;51.018;4.284;2023-09-12T10:34:58;18.02;;;10.52;;
18997;SDS011;9632;51.018;4.284;2023-09-12T10:37:25;26.00;;;13.63;;
18997;SDS011;9632;51.018;4.284;2023-09-12T10:39:54;24.67;;;12.80;;
18997;SDS011;9632;51.018;4.284;2023-09-12T10:42:20;29.27;;;15.45;;
18997;SDS011;9632;51.018;4.284;2023-09-12T10:44:48;26.52;;;14.68;;
18997;SDS011;9632;51.018;4.284;2023-09-12T10:47:16;25.00;;;12.13;;
18997;SDS011;9632;51.018;4.284;2023-09-12T10:49:43;20.92;;;11.23;;
18997;SDS011;9632;51.018;4.284;2023-09-12T10:52:09;23.27;;;12.63;;
18997;SDS011;9632;51.018;4.284;2023-09-12T10:54:36;18.27;;;10.38;;
18997;SDS011;9632;51.018;4.284;2023-09-12T10:57:04;18.02;;;9.98;;
18997;SDS011;9632;51.018;4.284;2023-09-12T10:59:30;20.20;;;11.00;;
18997;SDS011;9632;51.018;4.284;2023-09-12T11:04:55;25.85;;;11.52;;
18997;SDS011;9632;51.018;4.284;2023-09-12T11:12:45;15.50;;;8.95;;
18997;SDS011;9632;51.018;4.284;2023-09-12T11:15:13;15.02;;;8.55;;
18997;SDS011;9632;51.018;4.284;2023-09-12T11:17:43;14.90;;;7.90;;
18997;SDS011;9632;51.018;4.284;2023-09-12T11:20:10;13.00;;;7.45;;
18997;SDS011;9632;51.018;4.284;2023-09-12T11:22:40;14.18;;;7.55;;
18997;SDS011;9632;51.018;4.284;2023-09-12T11:30:19;11.77;;;6.95;;
18997;SDS011;9632;51.018;4.284;2023-09-12T11:32:50;12.80;;;7.07;;
18997;SDS011;9632;51.018;4.284;2023-09-12T11:35:17;14.88;;;7.97;;
18997;SDS011;9632;51.018;4.284;2023-09-12T11:37:59;12.98;;;7.32;;
18997;SDS011;9632;51.018;4.284;2023-09-12T11:40:40;12.93;;;7.28;;
18997;SDS011;9632;51.018;4.284;2023-09-12T11:43:22;13.30;;;7.93;;
18997;SDS011;9632;51.018;4.284;2023-09-12T11:45:49;13.95;;;8.65;;
18997;SDS011;9632;51.018;4.284;2023-09-12T11:48:16;15.23;;;9.88;;
18997;SDS011;9632;51.018;4.284;2023-09-12T11:50:42;14.30;;;9.05;;
18997;SDS011;9632;51.018;4.284;2023-09-12T11:53:22;16.77;;;9.10;;
18997;SDS011;9632;51.018;4.284;2023-09-12T11:55:51;15.80;;;9.02;;
18997;SDS011;9632;51.018;4.284;2023-09-12T11:58:21;12.93;;;7.78;;
18997;SDS011;9632;51.018;4.284;2023-09-12T12:00:48;12.70;;;6.93;;
18997;SDS011;9632;51.018;4.284;2023-09-12T12:03:16;9.95;;;6.53;;
18997;SDS011;9632;51.018;4.284;2023-09-12T12:05:43;12.80;;;6.45;;
18997;SDS011;9632;51.018;4.284;2023-09-12T12:08:09;12.32;;;6.50;;
18997;SDS011;9632;51.018;4.284;2023-09-12T12:10:36;13.52;;;7.20;;
18997;SDS011;9632;51.018;4.284;2023-09-12T12:13:04;13.57;;;6.80;;
18997;SDS011;9632;51.018;4.284;2023-09-12T12:15:30;11.15;;;6.95;;
18997;SDS011;9632;51.018;4.284;2023-09-12T12:17:55;12.75;;;6.63;;
18997;SDS011;9632;51.018;4.284;2023-09-12T12:20:22;11.68;;;6.63;;
18997;SDS011;9632;51.018;4.284;2023-09-12T12:22:48;19.80;;;7.80;;
18997;SDS011;9632;51.018;4.284;2023-09-12T12:25:14;10.75;;;6.00;;
18997;SDS011;9632;51.018;4.284;2023-09-12T12:27:41;13.38;;;6.38;;
18997;SDS011;9632;51.018;4.284;2023-09-12T12:30:16;14.82;;;7.38;;
18997;SDS011;9632;51.018;4.284;2023-09-12T12:32:43;12.85;;;6.60;;
18997;SDS011;9632;51.018;4.284;2023-09-12T12:35:20;15.52;;;6.25;;
18997;SDS011;9632;51.018;4.284;2023-09-12T12:37:50;12.20;;;5.90;;
18997;SDS011;9632;51.018;4.284;2023-09-12T12:40:19;10.70;;;6.25;;
18997;SDS011;9632;51.018;4.284;2023-09-12T12:42:45;14.20;;;7.75;;
18997;SDS011;9632;51.018;4.284;2023-09-12T12:45:23;12.05;;;6.93;;
18997;SDS011;9632;51.018;4.284;2023-09-12T12:47:57;10.48;;;6.22;;
18997;SDS011;9632;51.018;4.284;2023-09-12T12:50:24;11.27;;;6.35;;
18997;SDS011;9632;51.018;4.284;2023-09-12T12:52:53;14.23;;;6.53;;
18997;SDS011;9632;51.018;4.284;2023-09-12T12:55:20;9.57;;;5.85;;
18997;SDS011;9632;51.018;4.284;2023-09-12T12:57:50;13.93;;;7.65;;
18997;SDS011;9632;51.018;4.284;2023-09-12T13:00:16;12.25;;;6.60;;
18997;SDS011;9632;51.018;4.284;2023-09-12T13:02:43;11.43;;;6.63;;
18997;SDS011;9632;51.018;4.284;2023-09-12T13:07:52;9.23;;;5.65;;
18997;SDS011;9632;51.018;4.284;2023-09-12T13:10:18;10.88;;;6.20;;
18997;SDS011;9632;51.018;4.284;2023-09-12T13:12:45;9.05;;;5.43;;
18997;SDS011;9632;51.018;4.284;2023-09-12T13:15:14;9.18;;;5.10;;
18997;SDS011;9632;51.018;4.284;2023-09-12T13:17:41;10.10;;;5.18;;
18997;SDS011;9632;51.018;4.284;2023-09-12T13:20:07;9.73;;;6.32;;
18997;SDS011;9632;51.018;4.284;2023-09-12T13:22:33;8.40;;;5.05;;
18997;SDS011;9632;51.018;4.284;2023-09-12T13:24:59;9.85;;;5.30;;
18997;SDS011;9632;51.018;4.284;2023-09-12T13:27:25;11.85;;;6.95;;
18997;SDS011;9632;51.018;4.284;2023-09-12T13:29:51;12.07;;;6.07;;
18997;SDS011;9632;51.018;4.284;2023-09-12T13:32:16;9.27;;;5.28;;
18997;SDS011;9632;51.018;4.284;2023-09-12T13:34:43;11.40;;;6.13;;
18997;SDS011;9632;51.018;4.284;2023-09-12T13:37:09;8.50;;;5.30;;
18997;SDS011;9632;51.018;4.284;2023-09-12T13:39:35;8.38;;;5.35;;
18997;SDS011;9632;51.018;4.284;2023-09-12T13:42:01;11.65;;;5.70;;
18997;SDS011;9632;51.018;4.284;2023-09-12T13:44:29;10.65;;;5.40;;
18997;SDS011;9632;51.018;4.284;2023-09-12T13:46:55;9.32;;;4.78;;
18997;SDS011;9632;51.018;4.284;2023-09-12T13:49:20;9.75;;;4.35;;
18997;SDS011;9632;51.018;4.284;2023-09-12T13:51:46;6.88;;;4.28;;
18997;SDS011;9632;51.018;4.284;2023-09-12T13:54:12;9.77;;;4.70;;
18997;SDS011;9632;51.018;4.284;2023-09-12T13:56:43;7.50;;;4.15;;
18997;SDS011;9632;51.018;4.284;2023-09-12T13:59:09;6.63;;;4.10;;
18997;SDS011;9632;51.018;4.284;2023-09-12T14:01:35;6.30;;;3.42;;
18997;SDS011;9632;51.018;4.284;2023-09-12T14:04:01;7.13;;;3.35;;
18997;SDS011;9632;51.018;4.284;2023-09-12T14:06:28;7.38;;;4.20;;
18997;SDS011;9632;51.018;4.284;2023-09-12T14:08:53;6.07;;;3.65;;
18997;SDS011;9632;51.018;4.284;2023-09-12T14:11:19;6.40;;;3.63;;
18997;SDS011;9632;51.018;4.284;2023-09-12T14:13:44;8.93;;;3.72;;
18997;SDS011;9632;51.018;4.284;2023-09-12T14:16:10;5.07;;;3.10;;
18997;SDS011;9632;51.018;4.284;2023-09-12T14:18:36;5.43;;;3.58;;
18997;SDS011;9632;51.018;4.284;2023-09-12T14:21:02;5.95;;;3.70;;
18997;SDS011;9632;51.018;4.284;2023-09-12T14:23:28;6.38;;;3.72;;
18997;SDS011;9632;51.018;4.284;2023-09-12T14:25:53;6.75;;;3.63;;
18997;SDS011;9632;51.018;4.284;2023-09-12T14:28:19;7.10;;;3.53;;
18997;SDS011;9632;51.018;4.284;2023-09-12T14:30:45;6.28;;;3.50;;
18997;SDS011;9632;51.018;4.284;2023-09-12T14:33:11;7.45;;;3.58;;
18997;SDS011;9632;51.018;4.284;2023-09-12T14:35:37;5.13;;;3.47;;
18997;SDS011;9632;51.018;4.284;2023-09-12T14:38:03;8.23;;;3.97;;
18997;SDS011;9632;51.018;4.284;2023-09-12T14:40:29;8.70;;;4.18;;
18997;SDS011;9632;51.018;4.284;2023-09-12T14:42:55;11.40;;;4.43;;
18997;SDS011;9632;51.018;4.284;2023-09-12T14:45:21;14.00;;;5.75;;
18997;SDS011;9632;51.018;4.284;2023-09-12T14:47:48;10.63;;;5.40;;
18997;SDS011;9632;51.018;4.284;2023-09-12T14:50:14;7.68;;;4.82;;
18997;SDS011;9632;51.018;4.284;2023-09-12T14:52:40;10.30;;;4.88;;
18997;SDS011;9632;51.018;4.284;2023-09-12T14:55:07;11.25;;;4.78;;
18997;SDS011;9632;51.018;4.284;2023-09-12T14:57:33;7.80;;;4.80;;
18997;SDS011;9632;51.018;4.284;2023-09-12T15:00:00;7.93;;;4.60;;